Aérodrome :
LOGIN :

S'inscrire | Disclaimer

   EN    FR    IT 

 










Légende :    VFR   VFR Marginal   IFR   IFR Intensif   IFR Très Intensif
Visi : 
Plafond : 
>= 8 km
>= 3000ft
5 à 8 km
1000 à 3000 ft
1500m à 5 km
500 à 1000 ft
800 à 1500m
200 à 500 ft
< 800m
< 200 ft
Symboles :   Orages  Brouillard  Fortes neiges  Fortes précipitations  Vent > 20 kt
SIGMETs :   Divers  Orages  Givrage  Turbulence  Onde Orograph.  Cendres Volcan.







- Altitude de l'aérodrome : 2265 ft
- Code IATA : CZL


DABC - Mohamed Boudiaf Int. Constantine

DERNIER METAR :
  • 230430Z 25016KT 9999 FEW020 SCT026 03/M00 Q1004

METARs EXPIRÉS :
  • 230400Z 25011KT 9999 FEW020 SCT026 04/M00 Q1004
  • 230330Z 25012KT 9999 FEW020 BKN026 03/M01 Q1004
  • 230300Z 24006KT 9999 FEW020 SCT026 02/M01 Q1005
  • 230230Z 24010KT 9999 FEW020 BKN026 03/M01 Q1005
  • 230200Z 24012KT 9999 FEW020 BKN026 03/M01 Q1006

TAF TAF DABC
Valide du 23 à 00h jusqu'au 24 à 00h UTC


222300Z 2300/2324 22008KT 9999 FEW015TCU SCT030
PROB30
TEMPO 2300/2310 3000 -RA BR BKN008
BECMG 2308/2310 32014KT
TEMPO 2310/2316 4000 -TSRA FEW023CB
PROB30
TEMPO 2316/2324 28015G30KT 2000 TSRA SCT020CB
Pas de NOTAMs connus pour ce terrain.



MET'MAP, la Météo Aéronautique d'un coup d'oeil ! - Copyright ORBIFLY Décembre 2007 - Disclaimer

ORBIFLY MET'MAP TEAM :

Programmation & Développement : Alexandra Zaïnal
Conception & Développement : Baudouin d'Aumeries
Co-Programmation & Développement : Marc-Olivier Méhu
Soutien technique & logistique : Manuel Goepfert

Contact : metmap@orbifly.com




SOURCES & CREDITS :

   NOAA